createdAt,value
2022-12-11T00:01:34.453Z,17.13
2022-12-11T00:04:22.908Z,18.10
2022-12-11T00:07:12.542Z,16.00
2022-12-11T00:10:02.432Z,16.03
2022-12-11T00:12:50.824Z,15.30
2022-12-11T00:15:39.442Z,17.20
2022-12-11T00:18:27.955Z,16.27
2022-12-11T00:21:16.445Z,16.37
2022-12-11T00:24:05.620Z,14.37
2022-12-11T00:26:55.364Z,15.47
2022-12-11T00:29:43.946Z,16.13
2022-12-11T00:32:37.460Z,16.40
2022-12-11T00:35:26.434Z,16.90
2022-12-11T00:38:15.810Z,17.97
2022-12-11T00:41:04.219Z,15.70
2022-12-11T00:43:53.934Z,16.80
2022-12-11T00:46:42.328Z,16.47
2022-12-11T00:49:31.833Z,15.27
2022-12-11T00:52:20.238Z,19.07
2022-12-11T00:55:09.583Z,15.80
2022-12-11T00:57:58.780Z,18.23
2022-12-11T01:00:49.937Z,17.07
2022-12-11T01:03:38.431Z,17.60
2022-12-11T01:06:27.935Z,15.20
2022-12-11T01:09:34.020Z,16.10
2022-12-11T01:12:22.486Z,15.13
2022-12-11T01:15:12.026Z,15.37
2022-12-11T01:18:02.209Z,16.50
2022-12-11T01:20:50.647Z,20.57
2022-12-11T01:23:39.208Z,16.13
2022-12-11T01:26:27.606Z,16.90
2022-12-11T01:29:16.388Z,18.20
2022-12-11T01:32:05.243Z,16.03
2022-12-11T01:34:54.978Z,18.10
2022-12-11T01:37:43.462Z,17.50
2022-12-11T01:40:31.923Z,17.90
2022-12-11T01:43:20.372Z,16.30
2022-12-11T01:46:08.784Z,17.97
2022-12-11T01:48:57.279Z,18.00
2022-12-11T01:51:51.705Z,17.17
2022-12-11T01:54:40.141Z,16.20
2022-12-11T01:57:28.567Z,17.43
2022-12-11T02:00:17.995Z,18.43
2022-12-11T02:03:06.385Z,19.87
2022-12-11T02:05:54.815Z,19.97
2022-12-11T02:08:44.598Z,18.63
2022-12-11T02:11:48.935Z,18.30
2022-12-11T02:14:43.964Z,17.20
2022-12-11T02:17:35.955Z,19.27
2022-12-11T02:20:26.778Z,18.80
2022-12-11T02:23:40.130Z,17.20
2022-12-11T02:26:52.898Z,16.13
2022-12-11T02:29:46.161Z,16.87
2022-12-11T02:32:39.361Z,20.03
2022-12-11T02:35:31.523Z,18.77
2022-12-11T02:38:24.992Z,18.50
2022-12-11T02:41:13.383Z,18.17
2022-12-11T02:44:02.506Z,18.70
2022-12-11T02:46:52.386Z,18.47
2022-12-11T02:49:41.271Z,20.83
2022-12-11T02:52:29.642Z,21.97
2022-12-11T02:55:18.155Z,20.47
2022-12-11T02:58:08.468Z,21.73
2022-12-11T03:00:56.955Z,19.33
2022-12-11T03:03:46.806Z,20.83
2022-12-11T03:06:38.434Z,20.50
2022-12-11T03:09:26.920Z,22.20
2022-12-11T03:12:18.563Z,19.80
2022-12-11T03:15:10.106Z,20.07
2022-12-11T03:18:03.530Z,19.33
2022-12-11T03:20:57.755Z,20.37
2022-12-11T03:23:51.260Z,20.50
2022-12-11T03:26:42.828Z,18.90
2022-12-11T03:29:33.362Z,20.93
2022-12-11T03:32:23.667Z,22.37
2022-12-11T03:35:15.539Z,24.30
2022-12-11T03:38:07.376Z,22.50
2022-12-11T03:40:58.205Z,20.60
2022-12-11T03:43:46.599Z,25.53
2022-12-11T03:46:37.745Z,21.60
2022-12-11T03:49:28.598Z,24.67
2022-12-11T03:52:17.010Z,26.13
2022-12-11T03:55:08.090Z,20.87
2022-12-11T03:57:56.676Z,23.37
2022-12-11T04:00:45.243Z,23.03
2022-12-11T04:03:33.696Z,20.73
2022-12-11T04:06:22.110Z,20.83
2022-12-11T04:09:10.505Z,22.17
2022-12-11T04:12:00.214Z,24.70
2022-12-11T04:15:03.658Z,22.60
2022-12-11T04:18:09.826Z,22.87
2022-12-11T04:21:15.977Z,23.83
2022-12-11T04:24:17.471Z,24.17
2022-12-11T04:27:07.569Z,29.40
2022-12-11T04:29:55.976Z,26.50
2022-12-11T04:32:44.434Z,25.17
2022-12-11T04:35:32.849Z,23.00
2022-12-11T04:38:21.284Z,23.47
2022-12-11T04:41:12.492Z,23.33
2022-12-11T04:44:02.361Z,24.13
2022-12-11T04:46:50.760Z,21.20
2022-12-11T04:49:39.269Z,23.30
2022-12-11T04:52:27.729Z,23.67
2022-12-11T04:55:16.134Z,24.63
2022-12-11T04:58:04.527Z,22.83
2022-12-11T05:00:54.416Z,23.20
2022-12-11T05:03:43.300Z,23.53
2022-12-11T05:06:31.684Z,20.87
2022-12-11T05:09:20.112Z,21.83
2022-12-11T05:12:09.173Z,24.90
2022-12-11T05:14:57.573Z,27.30
2022-12-11T05:17:47.322Z,25.17
2022-12-11T05:20:35.742Z,26.27
2022-12-11T05:23:24.163Z,25.30
2022-12-11T05:26:14.272Z,26.97
2022-12-11T05:29:02.718Z,24.03
2022-12-11T05:31:51.363Z,26.83
2022-12-11T05:34:41.212Z,26.03
2022-12-11T05:37:29.914Z,26.80
2022-12-11T05:40:18.663Z,28.50
2022-12-11T05:43:07.083Z,27.77
2022-12-11T05:45:55.761Z,28.27
2022-12-11T05:48:44.431Z,26.03
2022-12-11T05:51:35.067Z,27.87
2022-12-11T05:54:23.517Z,26.60
2022-12-11T05:57:11.956Z,28.37
2022-12-11T06:00:00.406Z,26.40
2022-12-11T06:02:49.267Z,24.83
2022-12-11T06:05:39.171Z,27.23
2022-12-11T06:08:28.978Z,26.03
2022-12-11T06:11:23.606Z,25.80
2022-12-11T06:14:13.859Z,26.37
2022-12-11T06:17:02.532Z,24.37
2022-12-11T06:19:50.942Z,27.57
2022-12-11T06:22:39.373Z,27.17
2022-12-11T06:25:29.169Z,27.27
2022-12-11T06:28:17.572Z,31.47
2022-12-11T06:31:06.463Z,25.57
2022-12-11T06:33:55.045Z,29.47
2022-12-11T06:36:43.485Z,28.73
2022-12-11T06:39:32.071Z,28.47
2022-12-11T06:42:21.829Z,27.10
2022-12-11T06:45:12.044Z,28.73
2022-12-11T06:48:00.680Z,29.37
2022-12-11T06:50:49.135Z,28.23
2022-12-11T06:53:37.553Z,25.50
2022-12-11T06:56:25.970Z,32.40
2022-12-11T06:59:15.741Z,27.50
2022-12-11T07:02:04.248Z,29.83
2022-12-11T07:04:32.358Z,26.87
2022-12-11T07:07:00.658Z,28.87
2022-12-11T07:09:29.373Z,27.93
2022-12-11T07:11:57.716Z,29.30
2022-12-11T07:14:27.211Z,25.50
2022-12-11T07:16:55.357Z,28.27
2022-12-11T07:19:23.490Z,28.17
2022-12-11T07:21:51.632Z,28.67
2022-12-11T07:24:19.856Z,28.03
2022-12-11T07:26:47.964Z,29.07
2022-12-11T07:29:16.067Z,30.57
2022-12-11T07:31:45.532Z,29.07
2022-12-11T07:34:13.889Z,30.77
2022-12-11T07:36:42.024Z,36.40
2022-12-11T07:39:11.874Z,36.50
2022-12-11T07:41:40.077Z,35.50
2022-12-11T07:44:12.157Z,38.37
2022-12-11T07:46:40.529Z,36.77
2022-12-11T07:49:10.082Z,35.60
2022-12-11T07:51:39.278Z,36.33
2022-12-11T07:54:09.697Z,36.83
2022-12-11T07:56:37.822Z,33.37
2022-12-11T07:59:06.587Z,38.00
2022-12-11T08:01:36.826Z,34.63
2022-12-11T08:04:05.841Z,35.03
2022-12-11T08:06:36.584Z,30.60
2022-12-11T08:09:06.411Z,33.47
2022-12-11T08:11:34.915Z,33.83
2022-12-11T08:14:03.481Z,32.60
2022-12-11T08:16:31.661Z,34.40
2022-12-11T08:18:59.936Z,32.30
2022-12-11T08:21:28.609Z,34.60
2022-12-11T08:23:58.153Z,31.13
2022-12-11T08:26:29.760Z,32.93
2022-12-11T08:28:57.937Z,32.63
2022-12-11T08:31:26.299Z,33.53
2022-12-11T08:33:55.600Z,35.20
2022-12-11T08:36:24.028Z,32.60
2022-12-11T08:38:52.387Z,34.53
2022-12-11T08:41:23.594Z,30.10
2022-12-11T08:43:54.738Z,32.57
2022-12-11T08:46:24.299Z,32.10
2022-12-11T08:48:52.586Z,35.93
2022-12-11T08:51:23.083Z,36.67
2022-12-11T08:53:51.806Z,31.73
2022-12-11T08:56:23.625Z,33.33
2022-12-11T08:58:52.263Z,31.37
2022-12-11T09:01:22.434Z,34.30
2022-12-11T09:03:50.988Z,34.87
2022-12-11T09:06:21.450Z,36.93
2022-12-11T09:08:52.628Z,35.70
2022-12-11T09:11:23.983Z,32.10
2022-12-11T09:13:52.227Z,36.90
2022-12-11T09:16:21.878Z,34.27
2022-12-11T09:18:51.220Z,35.53
2022-12-11T09:21:20.924Z,32.83
2022-12-11T09:23:49.122Z,35.53
2022-12-11T09:26:18.470Z,34.53
2022-12-11T09:28:48.087Z,36.20
2022-12-11T09:31:17.539Z,35.63
2022-12-11T09:33:45.860Z,38.17
2022-12-11T09:36:14.105Z,32.77
2022-12-11T09:38:43.341Z,34.73
2022-12-11T09:41:30.964Z,37.67
2022-12-11T09:44:08.576Z,35.93
2022-12-11T09:46:36.922Z,37.37
2022-12-11T09:49:05.787Z,37.47
2022-12-11T09:51:37.707Z,37.53
2022-12-11T09:54:06.164Z,37.17
2022-12-11T09:56:35.506Z,37.33
2022-12-11T09:59:09.306Z,37.40
2022-12-11T10:01:41.735Z,34.93
2022-12-11T10:04:27.493Z,33.20
2022-12-11T10:07:03.296Z,32.10
2022-12-11T10:09:37.229Z,37.43
2022-12-11T10:12:16.677Z,32.70
2022-12-11T10:14:57.124Z,34.40
2022-12-11T10:17:29.608Z,38.97
2022-12-11T10:19:57.951Z,33.87
2022-12-11T10:22:28.356Z,38.27
2022-12-11T10:25:10.702Z,35.37
2022-12-11T10:27:40.785Z,36.13
2022-12-11T10:30:17.708Z,34.47
2022-12-11T10:32:52.773Z,35.13
2022-12-11T10:35:29.187Z,36.87
2022-12-11T10:37:58.405Z,38.43
2022-12-11T10:40:27.169Z,37.37
2022-12-11T10:42:55.518Z,38.70
2022-12-11T10:45:25.156Z,35.70
2022-12-11T10:48:04.220Z,39.27
2022-12-11T10:50:32.494Z,37.90
2022-12-11T10:53:00.702Z,46.27
2022-12-11T10:55:30.259Z,44.03
2022-12-11T10:58:01.718Z,40.83
2022-12-11T11:00:39.291Z,38.50
2022-12-11T11:03:08.997Z,41.47
2022-12-11T11:05:38.349Z,38.37
2022-12-11T11:08:15.765Z,37.03
2022-12-11T11:10:54.683Z,36.57
2022-12-11T11:13:23.392Z,40.43
2022-12-11T11:15:59.783Z,36.93
2022-12-11T11:18:28.754Z,35.77
2022-12-11T11:20:56.912Z,35.40
2022-12-11T11:23:25.641Z,35.13
2022-12-11T11:25:55.575Z,37.63
2022-12-11T11:28:25.603Z,46.67
2022-12-11T11:31:04.043Z,37.57
2022-12-11T11:33:32.896Z,38.00
2022-12-11T11:36:03.310Z,37.53
2022-12-11T11:38:33.870Z,34.40
2022-12-11T11:41:14.673Z,35.27
2022-12-11T11:43:46.416Z,37.20
2022-12-11T11:46:19.273Z,36.10
2022-12-11T11:48:53.570Z,39.10
2022-12-11T11:51:25.845Z,40.70
2022-12-11T11:53:56.339Z,38.33
2022-12-11T11:56:27.540Z,38.53
2022-12-11T11:59:02.581Z,34.23
2022-12-11T12:01:32.160Z,37.23
2022-12-11T12:04:00.287Z,37.07
2022-12-11T12:06:37.969Z,37.20
2022-12-11T12:09:17.040Z,40.00
2022-12-11T12:11:49.460Z,36.90
2022-12-11T12:14:51.019Z,39.67
2022-12-11T12:17:17.748Z,37.50
2022-12-11T12:19:53.072Z,33.57
2022-12-11T12:22:35.352Z,36.90
2022-12-11T12:25:11.685Z,39.27
2022-12-11T12:27:51.948Z,35.37
2022-12-11T12:30:23.368Z,34.63
2022-12-11T12:33:08.240Z,37.03
2022-12-11T12:35:38.097Z,35.60
2022-12-11T12:38:12.486Z,36.33
2022-12-11T12:40:49.844Z,39.17
2022-12-11T12:43:48.966Z,36.07
2022-12-11T12:46:28.969Z,36.20
2022-12-11T12:48:58.769Z,33.67
2022-12-11T12:51:27.135Z,36.73
2022-12-11T12:53:57.930Z,37.63
2022-12-11T12:56:26.205Z,36.97
2022-12-11T12:58:54.476Z,35.17
2022-12-11T13:01:23.743Z,35.93
2022-12-11T13:03:56.118Z,34.83
2022-12-11T13:06:35.544Z,37.27
2022-12-11T13:09:18.660Z,39.97
2022-12-11T13:11:49.920Z,42.97
2022-12-11T13:14:30.301Z,39.97
2022-12-11T13:17:25.030Z,57.67
2022-12-11T13:20:10.907Z,48.27
2022-12-11T13:22:50.023Z,67.47
2022-12-11T13:25:31.442Z,43.93
2022-12-11T13:28:09.191Z,37.63
2022-12-11T13:30:37.346Z,33.87
2022-12-11T13:33:07.204Z,40.03
2022-12-11T13:35:35.768Z,32.30
2022-12-11T13:38:16.551Z,36.40
2022-12-11T13:40:44.910Z,40.67
2022-12-11T13:43:20.034Z,40.53
2022-12-11T13:45:50.571Z,39.97
2022-12-11T13:48:25.203Z,36.87
2022-12-11T13:50:53.447Z,39.20
2022-12-11T13:53:23.586Z,40.27
2022-12-11T13:55:58.548Z,36.40
2022-12-11T13:58:27.142Z,42.03
2022-12-11T14:01:06.005Z,37.13
2022-12-11T14:03:34.187Z,37.77
2022-12-11T14:06:02.632Z,34.97
2022-12-11T14:08:36.046Z,36.03
2022-12-11T14:11:04.302Z,34.70
2022-12-11T14:13:34.405Z,36.40
2022-12-11T14:16:02.831Z,38.43
2022-12-11T14:18:32.766Z,37.80
2022-12-11T14:21:02.706Z,36.57
2022-12-11T14:23:32.915Z,39.17
2022-12-11T14:26:02.213Z,35.60
2022-12-11T14:28:37.011Z,36.03
2022-12-11T14:31:05.735Z,34.40
2022-12-11T14:33:36.340Z,35.70
2022-12-11T14:36:04.771Z,35.80
2022-12-11T14:38:36.685Z,33.73
2022-12-11T14:41:11.960Z,32.00
2022-12-11T14:43:43.786Z,37.37
2022-12-11T14:46:18.166Z,35.20
2022-12-11T14:48:49.130Z,33.30
2022-12-11T14:51:18.787Z,34.40
2022-12-11T14:53:49.318Z,34.50
2022-12-11T14:56:21.099Z,40.33
2022-12-11T14:58:54.717Z,34.37
2022-12-11T15:01:25.186Z,37.57
2022-12-11T15:04:04.196Z,32.73
2022-12-11T15:06:33.670Z,33.47
2022-12-11T15:09:21.078Z,31.00
2022-12-11T15:11:50.023Z,35.63
2022-12-11T15:14:19.619Z,34.83
2022-12-11T15:16:48.199Z,35.03
2022-12-11T15:19:21.229Z,37.53
2022-12-11T15:21:49.382Z,32.90
2022-12-11T15:24:27.250Z,35.57
2022-12-11T15:26:58.933Z,33.53
2022-12-11T15:29:33.196Z,35.10
2022-12-11T15:32:14.428Z,31.03
2022-12-11T15:34:45.278Z,35.57
2022-12-11T15:37:24.516Z,34.47
2022-12-11T15:39:54.695Z,35.57
2022-12-11T15:42:27.695Z,33.97
2022-12-11T15:44:56.456Z,34.57
2022-12-11T15:47:26.478Z,38.80
2022-12-11T15:49:55.722Z,36.43
2022-12-11T15:52:25.124Z,35.60
2022-12-11T15:54:54.691Z,31.67
2022-12-11T15:57:24.554Z,30.77
2022-12-11T15:59:53.834Z,34.87
2022-12-11T16:02:22.153Z,30.87
2022-12-11T16:04:50.766Z,32.17
2022-12-11T16:07:21.118Z,33.77
2022-12-11T16:09:49.343Z,33.10
2022-12-11T16:12:19.004Z,35.27
2022-12-11T16:14:47.331Z,33.77
2022-12-11T16:17:16.314Z,31.17
2022-12-11T16:19:44.910Z,31.23
2022-12-11T16:22:13.676Z,34.60
2022-12-11T16:24:42.037Z,34.23
2022-12-11T16:27:10.455Z,32.73
2022-12-11T16:29:41.334Z,31.00
2022-12-11T16:32:09.536Z,30.97
2022-12-11T16:34:38.213Z,31.13
2022-12-11T16:37:06.513Z,33.30
2022-12-11T16:39:34.682Z,30.47
2022-12-11T16:42:02.838Z,33.10
2022-12-11T16:44:31.073Z,31.40
2022-12-11T16:47:00.609Z,30.67
2022-12-11T16:49:28.850Z,30.03
2022-12-11T16:51:57.014Z,28.33
2022-12-11T16:54:25.454Z,25.83
2022-12-11T16:56:53.941Z,30.63
2022-12-11T16:59:22.131Z,26.50
2022-12-11T17:01:51.112Z,26.97
2022-12-11T17:04:20.609Z,25.27
2022-12-11T17:06:48.983Z,24.80
2022-12-11T17:09:17.028Z,23.03
2022-12-11T17:11:45.658Z,18.27
2022-12-11T17:14:13.876Z,20.30
2022-12-11T17:16:42.051Z,23.27
2022-12-11T17:19:11.547Z,22.97
2022-12-11T17:21:41.040Z,22.33
2022-12-11T17:24:10.401Z,28.20
2022-12-11T17:26:39.253Z,22.73
2022-12-11T17:29:07.524Z,25.50
2022-12-11T17:31:35.717Z,23.23
2022-12-11T17:34:03.998Z,24.90
2022-12-11T17:36:32.244Z,25.73
2022-12-11T17:39:01.708Z,23.50
2022-12-11T17:41:29.905Z,24.57
2022-12-11T17:43:58.087Z,25.90
2022-12-11T17:46:26.287Z,26.27
2022-12-11T17:48:54.565Z,25.17
2022-12-11T17:51:24.393Z,25.07
2022-12-11T17:53:53.671Z,25.27
2022-12-11T17:56:23.834Z,23.13
2022-12-11T17:58:52.016Z,23.87
2022-12-11T18:01:20.407Z,25.10
2022-12-11T18:03:48.667Z,25.80
2022-12-11T18:06:17.108Z,23.13
2022-12-11T18:08:46.029Z,24.20
2022-12-11T18:11:16.700Z,20.90
2022-12-11T18:13:46.273Z,21.70
2022-12-11T18:16:16.781Z,21.83
2022-12-11T18:18:46.167Z,23.00
2022-12-11T18:21:14.694Z,21.70
2022-12-11T18:23:42.911Z,18.33
2022-12-11T18:26:14.366Z,22.77
2022-12-11T18:28:42.639Z,21.67
2022-12-11T18:31:13.442Z,19.97
2022-12-11T18:33:42.826Z,20.17
2022-12-11T18:36:11.813Z,24.13
2022-12-11T18:38:40.072Z,20.73
2022-12-11T18:41:09.663Z,23.20
2022-12-11T18:43:37.943Z,21.33
2022-12-11T18:46:07.605Z,21.30
2022-12-11T18:48:37.285Z,23.00
2022-12-11T18:51:07.844Z,21.33
2022-12-11T18:53:36.303Z,22.20
2022-12-11T18:56:07.387Z,25.50
2022-12-11T18:58:36.059Z,21.10
2022-12-11T19:01:08.517Z,18.93
2022-12-11T19:03:38.251Z,17.07
2022-12-11T19:06:11.122Z,19.03
2022-12-11T19:08:39.308Z,19.37
2022-12-11T19:11:07.997Z,18.87
2022-12-11T19:13:36.322Z,18.57
2022-12-11T19:16:05.263Z,19.70
2022-12-11T19:18:33.514Z,15.77
2022-12-11T19:21:08.804Z,18.63
2022-12-11T19:23:37.634Z,20.47
2022-12-11T19:26:07.526Z,19.13
2022-12-11T19:28:35.822Z,18.07
2022-12-11T19:31:04.039Z,21.53
2022-12-11T19:33:32.268Z,24.60
2022-12-11T19:36:05.735Z,17.70
2022-12-11T19:38:33.967Z,20.53
2022-12-11T19:41:06.663Z,23.57
2022-12-11T19:43:34.925Z,24.17
2022-12-11T19:46:03.160Z,23.87
2022-12-11T19:48:31.442Z,20.93
2022-12-11T19:51:06.439Z,20.97
2022-12-11T19:53:34.975Z,18.67
2022-12-11T19:56:03.275Z,19.33
2022-12-11T19:58:31.507Z,18.07
2022-12-11T20:01:00.027Z,19.33
2022-12-11T20:03:29.295Z,18.50
2022-12-11T20:06:01.378Z,21.23
2022-12-11T20:08:46.521Z,32.77
2022-12-11T20:11:18.332Z,22.27
2022-12-11T20:13:47.466Z,17.80
2022-12-11T20:16:15.941Z,15.33
2022-12-11T20:18:44.273Z,20.00
2022-12-11T20:21:14.377Z,17.03
2022-12-11T20:23:44.136Z,17.03
2022-12-11T20:26:14.305Z,18.57
2022-12-11T20:28:44.892Z,19.73
2022-12-11T20:31:19.724Z,15.67
2022-12-11T20:33:48.908Z,15.93
2022-12-11T20:36:18.238Z,14.67
2022-12-11T20:38:48.039Z,13.50
2022-12-11T20:41:18.896Z,16.17
2022-12-11T20:43:48.909Z,12.80
2022-12-11T20:46:18.442Z,12.27
2022-12-11T20:48:47.143Z,12.93
2022-12-11T20:51:20.999Z,10.30
2022-12-11T20:53:57.480Z,11.57
2022-12-11T20:56:26.891Z,10.37
2022-12-11T20:58:55.003Z,9.97
2022-12-11T21:01:25.634Z,11.23
2022-12-11T21:04:12.393Z,12.70
2022-12-11T21:07:00.862Z,12.43
2022-12-11T21:09:50.886Z,13.17
2022-12-11T21:12:39.274Z,10.13
2022-12-11T21:15:27.688Z,10.33
2022-12-11T21:18:16.066Z,9.37
2022-12-11T21:21:04.865Z,12.07
2022-12-11T21:23:53.263Z,12.13
2022-12-11T21:26:43.015Z,10.07
2022-12-11T21:29:31.456Z,12.67
2022-12-11T21:32:20.131Z,12.43
2022-12-11T21:35:09.830Z,10.73
2022-12-11T21:37:58.292Z,9.30
2022-12-11T21:40:46.692Z,12.27
2022-12-11T21:43:40.054Z,11.20
2022-12-11T21:46:36.786Z,11.53
2022-12-11T21:49:25.221Z,10.93
2022-12-11T21:52:13.873Z,13.97
2022-12-11T21:55:02.271Z,12.23
2022-12-11T21:57:50.989Z,16.23
2022-12-11T22:00:40.952Z,20.23
2022-12-11T22:03:29.478Z,23.50
2022-12-11T22:06:18.005Z,17.43
2022-12-11T22:09:06.456Z,17.80
2022-12-11T22:11:58.326Z,16.53
2022-12-11T22:14:47.220Z,18.40
2022-12-11T22:17:37.385Z,16.00
2022-12-11T22:20:25.879Z,19.87
2022-12-11T22:23:14.270Z,19.47
2022-12-11T22:26:02.680Z,18.03
2022-12-11T22:28:51.126Z,19.60
2022-12-11T22:31:39.537Z,20.67
2022-12-11T22:34:29.307Z,23.70
2022-12-11T22:37:17.716Z,22.70
2022-12-11T22:40:07.430Z,22.37
2022-12-11T22:42:55.820Z,26.50
2022-12-11T22:45:45.370Z,35.33
2022-12-11T22:48:33.787Z,23.80
2022-12-11T22:51:23.798Z,25.13
2022-12-11T22:54:12.440Z,30.87
2022-12-11T22:57:01.253Z,30.13
2022-12-11T22:59:49.672Z,33.63
2022-12-11T23:02:38.542Z,31.83
2022-12-11T23:05:27.098Z,31.67
2022-12-11T23:08:16.916Z,34.20
2022-12-11T23:11:12.499Z,30.00
2022-12-11T23:14:01.142Z,33.97
2022-12-11T23:16:49.538Z,31.43
2022-12-11T23:19:37.990Z,30.80
2022-12-11T23:22:27.510Z,29.80
2022-12-11T23:25:18.992Z,33.47
2022-12-11T23:28:07.404Z,31.80
2022-12-11T23:30:55.918Z,32.50
2022-12-11T23:33:44.637Z,32.37
2022-12-11T23:36:33.581Z,33.20
2022-12-11T23:39:21.999Z,32.50
2022-12-11T23:42:11.774Z,33.33
2022-12-11T23:45:00.187Z,31.40
2022-12-11T23:47:48.592Z,31.87
2022-12-11T23:50:36.974Z,29.97
2022-12-11T23:53:25.344Z,31.20
2022-12-11T23:56:15.508Z,33.10
2022-12-11T23:59:05.268Z,30.57
